sensor_id;sensor_type;location;lat;lon;timestamp;P1;durP1;ratioP1;P2;durP2;ratioP2
72388;SDS011;60566;48.062;9.930;2023-05-03T00:00:31;12.82;;;8.10;;
72388;SDS011;60566;48.062;9.930;2023-05-03T00:02:56;14.88;;;8.40;;
72388;SDS011;60566;48.062;9.930;2023-05-03T00:05:21;13.80;;;9.07;;
72388;SDS011;60566;48.062;9.930;2023-05-03T00:07:48;13.75;;;7.80;;
72388;SDS011;60566;48.062;9.930;2023-05-03T00:10:13;14.23;;;9.35;;
72388;SDS011;60566;48.062;9.930;2023-05-03T00:12:39;14.57;;;8.88;;
72388;SDS011;60566;48.062;9.930;2023-05-03T00:15:05;14.63;;;8.85;;
72388;SDS011;60566;48.062;9.930;2023-05-03T00:17:31;16.30;;;8.75;;
72388;SDS011;60566;48.062;9.930;2023-05-03T00:19:57;14.25;;;8.70;;
72388;SDS011;60566;48.062;9.930;2023-05-03T00:22:22;14.60;;;9.05;;
72388;SDS011;60566;48.062;9.930;2023-05-03T00:24:49;13.15;;;8.50;;
72388;SDS011;60566;48.062;9.930;2023-05-03T00:27:14;14.85;;;9.48;;
72388;SDS011;60566;48.062;9.930;2023-05-03T00:29:40;14.52;;;8.80;;
72388;SDS011;60566;48.062;9.930;2023-05-03T00:32:05;17.85;;;9.70;;
72388;SDS011;60566;48.062;9.930;2023-05-03T00:34:30;14.00;;;8.30;;
72388;SDS011;60566;48.062;9.930;2023-05-03T00:36:56;14.63;;;9.32;;
72388;SDS011;60566;48.062;9.930;2023-05-03T00:39:21;16.95;;;9.25;;
72388;SDS011;60566;48.062;9.930;2023-05-03T00:41:48;17.45;;;8.55;;
72388;SDS011;60566;48.062;9.930;2023-05-03T00:44:13;16.90;;;10.55;;
72388;SDS011;60566;48.062;9.930;2023-05-03T00:46:39;18.42;;;10.77;;
72388;SDS011;60566;48.062;9.930;2023-05-03T00:49:04;18.58;;;10.50;;
72388;SDS011;60566;48.062;9.930;2023-05-03T00:51:30;16.60;;;9.88;;
72388;SDS011;60566;48.062;9.930;2023-05-03T00:53:55;19.30;;;10.65;;
72388;SDS011;60566;48.062;9.930;2023-05-03T00:56:21;14.70;;;9.65;;
72388;SDS011;60566;48.062;9.930;2023-05-03T00:58:49;13.77;;;8.70;;
72388;SDS011;60566;48.062;9.930;2023-05-03T01:01:15;17.77;;;10.30;;
72388;SDS011;60566;48.062;9.930;2023-05-03T01:03:40;15.40;;;10.02;;
72388;SDS011;60566;48.062;9.930;2023-05-03T01:06:09;15.13;;;9.45;;
72388;SDS011;60566;48.062;9.930;2023-05-03T01:08:43;15.98;;;10.25;;
72388;SDS011;60566;48.062;9.930;2023-05-03T01:11:16;15.10;;;9.65;;
72388;SDS011;60566;48.062;9.930;2023-05-03T01:17:22;16.67;;;9.90;;
72388;SDS011;60566;48.062;9.930;2023-05-03T01:20:03;15.73;;;9.48;;
72388;SDS011;60566;48.062;9.930;2023-05-03T01:22:45;17.40;;;10.43;;
72388;SDS011;60566;48.062;9.930;2023-05-03T01:33:52;15.43;;;9.50;;
72388;SDS011;60566;48.062;9.930;2023-05-03T01:36:31;15.98;;;10.35;;
72388;SDS011;60566;48.062;9.930;2023-05-03T01:39:17;15.23;;;10.45;;
72388;SDS011;60566;48.062;9.930;2023-05-03T01:41:58;17.15;;;9.52;;
72388;SDS011;60566;48.062;9.930;2023-05-03T01:44:29;16.25;;;8.93;;
72388;SDS011;60566;48.062;9.930;2023-05-03T01:47:09;15.65;;;10.77;;
72388;SDS011;60566;48.062;9.930;2023-05-03T01:49:42;16.42;;;10.60;;
72388;SDS011;60566;48.062;9.930;2023-05-03T01:52:33;16.83;;;10.63;;
72388;SDS011;60566;48.062;9.930;2023-05-03T01:55:25;15.27;;;9.50;;
72388;SDS011;60566;48.062;9.930;2023-05-03T01:57:52;18.02;;;10.23;;
72388;SDS011;60566;48.062;9.930;2023-05-03T02:00:17;19.80;;;11.63;;
72388;SDS011;60566;48.062;9.930;2023-05-03T02:02:46;22.27;;;12.98;;
72388;SDS011;60566;48.062;9.930;2023-05-03T02:05:25;21.38;;;11.77;;
72388;SDS011;60566;48.062;9.930;2023-05-03T02:08:00;21.00;;;12.00;;
72388;SDS011;60566;48.062;9.930;2023-05-03T02:10:31;16.48;;;10.52;;
72388;SDS011;60566;48.062;9.930;2023-05-03T02:13:00;20.70;;;12.02;;
72388;SDS011;60566;48.062;9.930;2023-05-03T02:15:29;19.38;;;11.20;;
72388;SDS011;60566;48.062;9.930;2023-05-03T02:17:59;19.75;;;12.02;;
72388;SDS011;60566;48.062;9.930;2023-05-03T02:20:24;22.63;;;10.77;;
72388;SDS011;60566;48.062;9.930;2023-05-03T02:22:50;20.88;;;12.30;;
72388;SDS011;60566;48.062;9.930;2023-05-03T02:25:15;22.02;;;12.02;;
72388;SDS011;60566;48.062;9.930;2023-05-03T02:27:41;23.55;;;11.88;;
72388;SDS011;60566;48.062;9.930;2023-05-03T02:30:08;20.33;;;13.13;;
72388;SDS011;60566;48.062;9.930;2023-05-03T02:32:33;18.38;;;10.85;;
72388;SDS011;60566;48.062;9.930;2023-05-03T02:34:59;23.15;;;13.05;;
72388;SDS011;60566;48.062;9.930;2023-05-03T02:37:24;22.48;;;12.40;;
72388;SDS011;60566;48.062;9.930;2023-05-03T02:39:49;21.60;;;13.48;;
72388;SDS011;60566;48.062;9.930;2023-05-03T02:42:15;24.67;;;14.07;;
72388;SDS011;60566;48.062;9.930;2023-05-03T02:44:40;21.60;;;12.85;;
72388;SDS011;60566;48.062;9.930;2023-05-03T02:47:07;23.23;;;12.63;;
72388;SDS011;60566;48.062;9.930;2023-05-03T02:49:33;20.23;;;11.93;;
72388;SDS011;60566;48.062;9.930;2023-05-03T02:51:58;22.15;;;12.73;;
72388;SDS011;60566;48.062;9.930;2023-05-03T02:54:24;23.15;;;12.88;;
72388;SDS011;60566;48.062;9.930;2023-05-03T02:56:49;22.42;;;12.13;;
72388;SDS011;60566;48.062;9.930;2023-05-03T02:59:14;24.05;;;12.50;;
72388;SDS011;60566;48.062;9.930;2023-05-03T03:01:40;23.20;;;14.30;;
72388;SDS011;60566;48.062;9.930;2023-05-03T03:04:06;26.23;;;14.02;;
72388;SDS011;60566;48.062;9.930;2023-05-03T03:06:32;28.45;;;14.90;;
72388;SDS011;60566;48.062;9.930;2023-05-03T03:08:57;29.23;;;13.23;;
72388;SDS011;60566;48.062;9.930;2023-05-03T03:11:22;28.58;;;14.88;;
72388;SDS011;60566;48.062;9.930;2023-05-03T03:13:48;28.58;;;15.68;;
72388;SDS011;60566;48.062;9.930;2023-05-03T03:16:13;29.48;;;14.80;;
72388;SDS011;60566;48.062;9.930;2023-05-03T03:18:39;36.00;;;16.67;;
72388;SDS011;60566;48.062;9.930;2023-05-03T03:21:05;33.38;;;16.88;;
72388;SDS011;60566;48.062;9.930;2023-05-03T03:23:31;38.97;;;16.95;;
72388;SDS011;60566;48.062;9.930;2023-05-03T03:25:56;43.75;;;16.95;;
72388;SDS011;60566;48.062;9.930;2023-05-03T03:28:22;46.25;;;16.27;;
72388;SDS011;60566;48.062;9.930;2023-05-03T03:30:47;72.65;;;17.83;;
72388;SDS011;60566;48.062;9.930;2023-05-03T03:33:12;48.47;;;16.55;;
72388;SDS011;60566;48.062;9.930;2023-05-03T03:35:38;87.63;;;16.52;;
72388;SDS011;60566;48.062;9.930;2023-05-03T03:38:05;82.60;;;16.95;;
72388;SDS011;60566;48.062;9.930;2023-05-03T03:40:30;55.15;;;16.42;;
72388;SDS011;60566;48.062;9.930;2023-05-03T03:42:56;59.15;;;16.45;;
72388;SDS011;60566;48.062;9.930;2023-05-03T03:45:21;70.20;;;17.15;;
72388;SDS011;60566;48.062;9.930;2023-05-03T03:47:46;45.15;;;16.10;;
72388;SDS011;60566;48.062;9.930;2023-05-03T03:50:12;64.60;;;17.17;;
72388;SDS011;60566;48.062;9.930;2023-05-03T03:52:37;55.60;;;17.58;;
72388;SDS011;60566;48.062;9.930;2023-05-03T03:55:05;67.03;;;16.70;;
72388;SDS011;60566;48.062;9.930;2023-05-03T03:57:30;53.58;;;15.52;;
72388;SDS011;60566;48.062;9.930;2023-05-03T03:59:56;49.47;;;18.02;;
72388;SDS011;60566;48.062;9.930;2023-05-03T04:02:21;60.10;;;18.15;;
72388;SDS011;60566;48.062;9.930;2023-05-03T04:04:47;51.53;;;17.90;;
72388;SDS011;60566;48.062;9.930;2023-05-03T04:07:12;60.50;;;17.13;;
72388;SDS011;60566;48.062;9.930;2023-05-03T04:09:37;47.92;;;16.80;;
72388;SDS011;60566;48.062;9.930;2023-05-03T04:12:04;43.00;;;15.95;;
72388;SDS011;60566;48.062;9.930;2023-05-03T04:14:30;47.70;;;17.02;;
72388;SDS011;60566;48.062;9.930;2023-05-03T04:16:55;45.08;;;16.48;;
72388;SDS011;60566;48.062;9.930;2023-05-03T04:19:20;48.08;;;17.55;;
72388;SDS011;60566;48.062;9.930;2023-05-03T04:21:46;54.15;;;16.92;;
72388;SDS011;60566;48.062;9.930;2023-05-03T04:24:15;50.55;;;16.48;;
72388;SDS011;60566;48.062;9.930;2023-05-03T04:26:40;52.10;;;17.50;;
72388;SDS011;60566;48.062;9.930;2023-05-03T04:29:07;55.67;;;17.60;;
72388;SDS011;60566;48.062;9.930;2023-05-03T04:31:33;52.33;;;18.95;;
72388;SDS011;60566;48.062;9.930;2023-05-03T04:33:58;72.63;;;17.77;;
72388;SDS011;60566;48.062;9.930;2023-05-03T04:36:23;55.30;;;17.42;;
72388;SDS011;60566;48.062;9.930;2023-05-03T04:38:49;61.13;;;18.02;;
72388;SDS011;60566;48.062;9.930;2023-05-03T04:41:14;58.35;;;17.83;;
72388;SDS011;60566;48.062;9.930;2023-05-03T04:43:39;51.13;;;17.38;;
72388;SDS011;60566;48.062;9.930;2023-05-03T04:46:06;61.63;;;17.90;;
72388;SDS011;60566;48.062;9.930;2023-05-03T04:48:31;62.83;;;17.13;;
72388;SDS011;60566;48.062;9.930;2023-05-03T04:50:57;58.72;;;18.08;;
72388;SDS011;60566;48.062;9.930;2023-05-03T04:53:22;59.58;;;18.73;;
72388;SDS011;60566;48.062;9.930;2023-05-03T04:55:48;55.05;;;17.52;;
72388;SDS011;60566;48.062;9.930;2023-05-03T04:58:13;60.78;;;17.75;;
72388;SDS011;60566;48.062;9.930;2023-05-03T05:00:40;67.28;;;18.95;;
72388;SDS011;60566;48.062;9.930;2023-05-03T05:03:07;71.95;;;16.02;;
72388;SDS011;60566;48.062;9.930;2023-05-03T05:05:32;59.28;;;15.65;;
72388;SDS011;60566;48.062;9.930;2023-05-03T05:07:58;48.50;;;16.23;;
72388;SDS011;60566;48.062;9.930;2023-05-03T05:10:23;42.45;;;15.90;;
72388;SDS011;60566;48.062;9.930;2023-05-03T05:12:49;57.08;;;16.80;;
72388;SDS011;60566;48.062;9.930;2023-05-03T05:15:14;49.60;;;15.13;;
72388;SDS011;60566;48.062;9.930;2023-05-03T05:17:40;38.75;;;13.02;;
72388;SDS011;60566;48.062;9.930;2023-05-03T05:20:07;55.30;;;14.50;;
72388;SDS011;60566;48.062;9.930;2023-05-03T05:22:33;36.47;;;12.13;;
72388;SDS011;60566;48.062;9.930;2023-05-03T05:24:58;40.50;;;13.90;;
72388;SDS011;60566;48.062;9.930;2023-05-03T05:27:24;40.83;;;14.27;;
72388;SDS011;60566;48.062;9.930;2023-05-03T05:29:49;53.53;;;14.38;;
72388;SDS011;60566;48.062;9.930;2023-05-03T05:32:14;49.25;;;13.57;;
72388;SDS011;60566;48.062;9.930;2023-05-03T05:34:40;58.90;;;14.10;;
72388;SDS011;60566;48.062;9.930;2023-05-03T05:37:06;53.45;;;16.13;;
72388;SDS011;60566;48.062;9.930;2023-05-03T05:39:32;50.38;;;15.02;;
72388;SDS011;60566;48.062;9.930;2023-05-03T05:41:57;48.65;;;14.85;;
72388;SDS011;60566;48.062;9.930;2023-05-03T05:44:22;52.53;;;15.10;;
72388;SDS011;60566;48.062;9.930;2023-05-03T05:46:48;59.28;;;16.63;;
72388;SDS011;60566;48.062;9.930;2023-05-03T05:49:13;62.35;;;16.58;;
72388;SDS011;60566;48.062;9.930;2023-05-03T05:51:39;61.25;;;15.77;;
72388;SDS011;60566;48.062;9.930;2023-05-03T05:54:06;50.65;;;16.02;;
72388;SDS011;60566;48.062;9.930;2023-05-03T05:56:31;43.80;;;15.57;;
72388;SDS011;60566;48.062;9.930;2023-05-03T05:58:56;42.78;;;15.38;;
72388;SDS011;60566;48.062;9.930;2023-05-03T06:01:22;31.75;;;15.25;;
72388;SDS011;60566;48.062;9.930;2023-05-03T06:03:47;43.08;;;14.65;;
72388;SDS011;60566;48.062;9.930;2023-05-03T06:06:12;44.58;;;16.02;;
72388;SDS011;60566;48.062;9.930;2023-05-03T06:08:38;44.83;;;15.52;;
72388;SDS011;60566;48.062;9.930;2023-05-03T06:11:04;49.60;;;13.68;;
72388;SDS011;60566;48.062;9.930;2023-05-03T06:13:30;59.78;;;16.65;;
72388;SDS011;60566;48.062;9.930;2023-05-03T06:15:55;43.15;;;17.02;;
72388;SDS011;60566;48.062;9.930;2023-05-03T06:18:20;49.35;;;15.73;;
72388;SDS011;60566;48.062;9.930;2023-05-03T06:20:48;62.30;;;15.88;;
72388;SDS011;60566;48.062;9.930;2023-05-03T06:23:13;34.58;;;15.05;;
72388;SDS011;60566;48.062;9.930;2023-05-03T06:25:38;35.85;;;15.52;;
72388;SDS011;60566;48.062;9.930;2023-05-03T06:28:05;28.40;;;15.07;;
72388;SDS011;60566;48.062;9.930;2023-05-03T06:30:30;34.97;;;16.25;;
72388;SDS011;60566;48.062;9.930;2023-05-03T06:32:56;35.22;;;16.05;;
72388;SDS011;60566;48.062;9.930;2023-05-03T06:35:21;29.67;;;16.02;;
72388;SDS011;60566;48.062;9.930;2023-05-03T06:37:46;40.33;;;14.90;;
72388;SDS011;60566;48.062;9.930;2023-05-03T06:40:12;35.17;;;14.32;;
72388;SDS011;60566;48.062;9.930;2023-05-03T06:42:37;42.80;;;15.82;;
72388;SDS011;60566;48.062;9.930;2023-05-03T06:45:05;34.65;;;14.65;;
72388;SDS011;60566;48.062;9.930;2023-05-03T06:47:31;35.85;;;15.43;;
72388;SDS011;60566;48.062;9.930;2023-05-03T06:49:56;34.88;;;14.95;;
72388;SDS011;60566;48.062;9.930;2023-05-03T06:52:21;29.25;;;14.70;;
72388;SDS011;60566;48.062;9.930;2023-05-03T06:54:47;28.33;;;15.07;;
72388;SDS011;60566;48.062;9.930;2023-05-03T06:57:12;35.08;;;15.32;;
72388;SDS011;60566;48.062;9.930;2023-05-03T06:59:37;28.80;;;15.73;;
72388;SDS011;60566;48.062;9.930;2023-05-03T07:02:04;28.77;;;14.73;;
72388;SDS011;60566;48.062;9.930;2023-05-03T07:04:30;30.65;;;15.07;;
72388;SDS011;60566;48.062;9.930;2023-05-03T07:06:55;37.55;;;16.20;;
72388;SDS011;60566;48.062;9.930;2023-05-03T07:09:20;35.33;;;16.67;;
72388;SDS011;60566;48.062;9.930;2023-05-03T07:11:46;32.20;;;16.77;;
72388;SDS011;60566;48.062;9.930;2023-05-03T07:14:11;30.38;;;15.43;;
72388;SDS011;60566;48.062;9.930;2023-05-03T07:16:37;30.85;;;14.65;;
72388;SDS011;60566;48.062;9.930;2023-05-03T07:19:03;37.78;;;16.70;;
72388;SDS011;60566;48.062;9.930;2023-05-03T07:21:29;31.98;;;16.25;;
72388;SDS011;60566;48.062;9.930;2023-05-03T07:23:54;34.15;;;16.50;;
72388;SDS011;60566;48.062;9.930;2023-05-03T07:26:19;32.22;;;15.98;;
72388;SDS011;60566;48.062;9.930;2023-05-03T07:28:45;33.65;;;17.42;;
72388;SDS011;60566;48.062;9.930;2023-05-03T07:31:10;33.72;;;16.33;;
72388;SDS011;60566;48.062;9.930;2023-05-03T07:33:36;34.00;;;17.33;;
72388;SDS011;60566;48.062;9.930;2023-05-03T07:36:02;35.88;;;17.55;;
72388;SDS011;60566;48.062;9.930;2023-05-03T07:38:28;35.45;;;17.10;;
72388;SDS011;60566;48.062;9.930;2023-05-03T07:40:53;33.33;;;16.50;;
72388;SDS011;60566;48.062;9.930;2023-05-03T07:43:19;33.15;;;17.05;;
72388;SDS011;60566;48.062;9.930;2023-05-03T07:45:44;34.45;;;17.27;;
72388;SDS011;60566;48.062;9.930;2023-05-03T07:48:10;31.15;;;16.83;;
72388;SDS011;60566;48.062;9.930;2023-05-03T07:50:35;33.45;;;16.77;;
72388;SDS011;60566;48.062;9.930;2023-05-03T07:53:02;36.90;;;17.02;;
72388;SDS011;60566;48.062;9.930;2023-05-03T07:55:27;32.45;;;16.73;;
72388;SDS011;60566;48.062;9.930;2023-05-03T07:57:53;30.45;;;16.67;;
72388;SDS011;60566;48.062;9.930;2023-05-03T08:00:18;34.63;;;16.85;;
72388;SDS011;60566;48.062;9.930;2023-05-03T08:02:44;40.45;;;16.63;;
72388;SDS011;60566;48.062;9.930;2023-05-03T08:05:09;32.70;;;15.13;;
72388;SDS011;60566;48.062;9.930;2023-05-03T08:07:35;36.03;;;18.20;;
72388;SDS011;60566;48.062;9.930;2023-05-03T08:10:02;32.17;;;16.13;;
72388;SDS011;60566;48.062;9.930;2023-05-03T08:12:28;34.90;;;16.88;;
72388;SDS011;60566;48.062;9.930;2023-05-03T08:14:53;38.47;;;17.90;;
72388;SDS011;60566;48.062;9.930;2023-05-03T08:17:20;35.35;;;16.60;;
72388;SDS011;60566;48.062;9.930;2023-05-03T08:19:45;33.70;;;17.75;;
72388;SDS011;60566;48.062;9.930;2023-05-03T08:22:11;37.10;;;17.35;;
72388;SDS011;60566;48.062;9.930;2023-05-03T08:24:36;35.85;;;17.67;;
72388;SDS011;60566;48.062;9.930;2023-05-03T08:27:03;33.42;;;16.83;;
72388;SDS011;60566;48.062;9.930;2023-05-03T08:29:29;29.63;;;16.30;;
72388;SDS011;60566;48.062;9.930;2023-05-03T08:31:54;36.10;;;17.33;;
72388;SDS011;60566;48.062;9.930;2023-05-03T08:34:19;33.17;;;15.73;;
72388;SDS011;60566;48.062;9.930;2023-05-03T08:36:45;31.45;;;15.73;;
72388;SDS011;60566;48.062;9.930;2023-05-03T08:39:10;32.72;;;16.02;;
72388;SDS011;60566;48.062;9.930;2023-05-03T08:41:35;33.45;;;16.10;;
72388;SDS011;60566;48.062;9.930;2023-05-03T08:44:05;32.97;;;15.82;;
72388;SDS011;60566;48.062;9.930;2023-05-03T08:46:32;31.70;;;16.55;;
72388;SDS011;60566;48.062;9.930;2023-05-03T08:48:57;32.38;;;15.27;;
72388;SDS011;60566;48.062;9.930;2023-05-03T08:51:23;32.83;;;17.17;;
72388;SDS011;60566;48.062;9.930;2023-05-03T08:53:48;33.85;;;16.80;;
72388;SDS011;60566;48.062;9.930;2023-05-03T08:56:15;34.97;;;16.60;;
72388;SDS011;60566;48.062;9.930;2023-05-03T08:58:44;32.17;;;15.90;;
72388;SDS011;60566;48.062;9.930;2023-05-03T09:01:10;31.50;;;16.50;;
72388;SDS011;60566;48.062;9.930;2023-05-03T09:03:36;33.35;;;16.63;;
72388;SDS011;60566;48.062;9.930;2023-05-03T09:06:01;33.75;;;16.15;;
72388;SDS011;60566;48.062;9.930;2023-05-03T09:08:27;32.47;;;15.88;;
72388;SDS011;60566;48.062;9.930;2023-05-03T09:10:52;31.70;;;16.65;;
72388;SDS011;60566;48.062;9.930;2023-05-03T09:13:18;33.42;;;16.38;;
72388;SDS011;60566;48.062;9.930;2023-05-03T09:15:46;33.65;;;17.70;;
72388;SDS011;60566;48.062;9.930;2023-05-03T09:18:18;34.95;;;17.92;;
72388;SDS011;60566;48.062;9.930;2023-05-03T09:20:44;33.00;;;18.05;;
72388;SDS011;60566;48.062;9.930;2023-05-03T09:23:11;31.45;;;16.52;;
72388;SDS011;60566;48.062;9.930;2023-05-03T09:25:40;32.63;;;16.83;;
72388;SDS011;60566;48.062;9.930;2023-05-03T09:28:09;33.88;;;17.52;;
72388;SDS011;60566;48.062;9.930;2023-05-03T09:30:34;32.53;;;16.58;;
72388;SDS011;60566;48.062;9.930;2023-05-03T09:33:00;32.95;;;16.45;;
72388;SDS011;60566;48.062;9.930;2023-05-03T09:35:27;34.28;;;17.48;;
72388;SDS011;60566;48.062;9.930;2023-05-03T09:37:52;31.30;;;16.83;;
72388;SDS011;60566;48.062;9.930;2023-05-03T09:40:17;31.27;;;16.52;;
72388;SDS011;60566;48.062;9.930;2023-05-03T09:42:54;33.33;;;16.50;;
72388;SDS011;60566;48.062;9.930;2023-05-03T09:45:29;32.40;;;17.30;;
72388;SDS011;60566;48.062;9.930;2023-05-03T09:47:54;35.72;;;17.10;;
72388;SDS011;60566;48.062;9.930;2023-05-03T09:50:19;35.05;;;19.50;;
72388;SDS011;60566;48.062;9.930;2023-05-03T09:52:46;34.47;;;17.58;;
72388;SDS011;60566;48.062;9.930;2023-05-03T09:55:12;37.50;;;18.52;;
72388;SDS011;60566;48.062;9.930;2023-05-03T09:57:40;35.67;;;18.45;;
72388;SDS011;60566;48.062;9.930;2023-05-03T10:00:07;33.85;;;17.88;;
72388;SDS011;60566;48.062;9.930;2023-05-03T10:02:33;34.78;;;17.98;;
72388;SDS011;60566;48.062;9.930;2023-05-03T10:04:58;33.17;;;17.60;;
72388;SDS011;60566;48.062;9.930;2023-05-03T10:07:24;30.30;;;16.42;;
72388;SDS011;60566;48.062;9.930;2023-05-03T10:09:53;32.03;;;16.85;;
72388;SDS011;60566;48.062;9.930;2023-05-03T10:12:18;32.33;;;17.25;;
72388;SDS011;60566;48.062;9.930;2023-05-03T10:14:44;32.65;;;17.45;;
72388;SDS011;60566;48.062;9.930;2023-05-03T10:17:12;33.13;;;17.13;;
72388;SDS011;60566;48.062;9.930;2023-05-03T10:19:46;32.65;;;17.88;;
72388;SDS011;60566;48.062;9.930;2023-05-03T10:22:15;31.27;;;16.85;;
72388;SDS011;60566;48.062;9.930;2023-05-03T10:27:41;32.40;;;17.45;;
72388;SDS011;60566;48.062;9.930;2023-05-03T10:30:25;39.20;;;18.85;;
72388;SDS011;60566;48.062;9.930;2023-05-03T10:32:52;36.78;;;18.50;;
72388;SDS011;60566;48.062;9.930;2023-05-03T10:35:18;33.80;;;17.55;;
72388;SDS011;60566;48.062;9.930;2023-05-03T10:37:46;37.53;;;18.13;;
72388;SDS011;60566;48.062;9.930;2023-05-03T10:40:15;31.65;;;18.52;;
72388;SDS011;60566;48.062;9.930;2023-05-03T10:42:43;35.53;;;19.15;;
72388;SDS011;60566;48.062;9.930;2023-05-03T10:45:19;35.58;;;18.80;;
72388;SDS011;60566;48.062;9.930;2023-05-03T10:50:42;30.42;;;16.75;;
72388;SDS011;60566;48.062;9.930;2023-05-03T10:53:07;33.67;;;17.73;;
72388;SDS011;60566;48.062;9.930;2023-05-03T10:56:01;37.38;;;17.20;;
72388;SDS011;60566;48.062;9.930;2023-05-03T10:58:27;32.53;;;17.92;;
72388;SDS011;60566;48.062;9.930;2023-05-03T11:00:52;34.60;;;17.70;;
72388;SDS011;60566;48.062;9.930;2023-05-03T11:03:27;33.97;;;18.15;;
72388;SDS011;60566;48.062;9.930;2023-05-03T11:05:58;32.00;;;17.00;;
72388;SDS011;60566;48.062;9.930;2023-05-03T11:08:23;28.73;;;16.05;;
72388;SDS011;60566;48.062;9.930;2023-05-03T11:10:49;30.10;;;15.63;;
72388;SDS011;60566;48.062;9.930;2023-05-03T11:13:22;32.33;;;17.77;;
72388;SDS011;60566;48.062;9.930;2023-05-03T11:15:48;31.42;;;16.67;;
72388;SDS011;60566;48.062;9.930;2023-05-03T11:18:13;31.77;;;18.13;;
72388;SDS011;60566;48.062;9.930;2023-05-03T11:20:39;27.92;;;15.57;;
72388;SDS011;60566;48.062;9.930;2023-05-03T11:23:04;28.27;;;16.77;;
72388;SDS011;60566;48.062;9.930;2023-05-03T11:25:30;29.38;;;16.55;;
72388;SDS011;60566;48.062;9.930;2023-05-03T11:27:55;28.75;;;16.27;;
72388;SDS011;60566;48.062;9.930;2023-05-03T11:30:22;29.75;;;17.63;;
72388;SDS011;60566;48.062;9.930;2023-05-03T11:32:48;29.02;;;16.25;;
72388;SDS011;60566;48.062;9.930;2023-05-03T11:35:13;29.95;;;16.88;;
72388;SDS011;60566;48.062;9.930;2023-05-03T11:37:39;28.30;;;16.15;;
72388;SDS011;60566;48.062;9.930;2023-05-03T11:40:06;30.27;;;16.65;;
72388;SDS011;60566;48.062;9.930;2023-05-03T11:42:49;36.00;;;18.42;;
72388;SDS011;60566;48.062;9.930;2023-05-03T11:45:14;28.45;;;15.80;;
72388;SDS011;60566;48.062;9.930;2023-05-03T11:47:41;27.10;;;15.73;;
72388;SDS011;60566;48.062;9.930;2023-05-03T11:50:07;28.45;;;17.15;;
72388;SDS011;60566;48.062;9.930;2023-05-03T11:52:35;30.48;;;16.00;;
72388;SDS011;60566;48.062;9.930;2023-05-03T11:55:00;24.88;;;14.75;;
72388;SDS011;60566;48.062;9.930;2023-05-03T11:57:26;25.67;;;15.07;;
72388;SDS011;60566;48.062;9.930;2023-05-03T11:59:51;26.80;;;14.85;;
72388;SDS011;60566;48.062;9.930;2023-05-03T12:02:16;26.58;;;14.80;;
72388;SDS011;60566;48.062;9.930;2023-05-03T12:04:43;25.17;;;15.68;;
72388;SDS011;60566;48.062;9.930;2023-05-03T12:07:09;27.40;;;14.88;;
72388;SDS011;60566;48.062;9.930;2023-05-03T12:09:35;23.10;;;14.40;;
72388;SDS011;60566;48.062;9.930;2023-05-03T12:12:01;22.60;;;13.20;;
72388;SDS011;60566;48.062;9.930;2023-05-03T12:14:26;23.50;;;13.50;;
72388;SDS011;60566;48.062;9.930;2023-05-03T12:16:52;20.85;;;12.55;;
72388;SDS011;60566;48.062;9.930;2023-05-03T12:19:24;23.95;;;13.15;;
72388;SDS011;60566;48.062;9.930;2023-05-03T12:21:51;21.45;;;11.60;;
72388;SDS011;60566;48.062;9.930;2023-05-03T12:24:16;19.58;;;12.10;;
72388;SDS011;60566;48.062;9.930;2023-05-03T12:26:42;20.67;;;11.18;;
72388;SDS011;60566;48.062;9.930;2023-05-03T12:29:07;22.85;;;11.77;;
72388;SDS011;60566;48.062;9.930;2023-05-03T12:31:33;18.95;;;12.07;;
72388;SDS011;60566;48.062;9.930;2023-05-03T12:33:58;19.75;;;12.02;;
72388;SDS011;60566;48.062;9.930;2023-05-03T12:36:23;17.38;;;11.65;;
72388;SDS011;60566;48.062;9.930;2023-05-03T12:38:50;24.58;;;10.38;;
72388;SDS011;60566;48.062;9.930;2023-05-03T12:41:16;16.55;;;9.93;;
72388;SDS011;60566;48.062;9.930;2023-05-03T12:43:41;20.05;;;10.32;;
72388;SDS011;60566;48.062;9.930;2023-05-03T12:46:06;17.52;;;11.05;;
72388;SDS011;60566;48.062;9.930;2023-05-03T12:48:32;17.23;;;9.68;;
72388;SDS011;60566;48.062;9.930;2023-05-03T12:50:57;15.60;;;9.73;;
72388;SDS011;60566;48.062;9.930;2023-05-03T12:53:23;14.45;;;8.38;;
72388;SDS011;60566;48.062;9.930;2023-05-03T12:55:50;11.65;;;6.72;;
72388;SDS011;60566;48.062;9.930;2023-05-03T12:58:15;16.27;;;10.05;;
72388;SDS011;60566;48.062;9.930;2023-05-03T13:00:41;14.82;;;8.80;;
72388;SDS011;60566;48.062;9.930;2023-05-03T13:03:06;13.95;;;8.57;;
72388;SDS011;60566;48.062;9.930;2023-05-03T13:05:32;12.82;;;7.55;;
72388;SDS011;60566;48.062;9.930;2023-05-03T13:07:58;15.48;;;8.18;;
72388;SDS011;60566;48.062;9.930;2023-05-03T13:10:24;12.90;;;7.38;;
72388;SDS011;60566;48.062;9.930;2023-05-03T13:12:50;13.30;;;7.40;;
72388;SDS011;60566;48.062;9.930;2023-05-03T13:15:16;10.18;;;7.10;;
72388;SDS011;60566;48.062;9.930;2023-05-03T13:17:41;12.48;;;7.65;;
72388;SDS011;60566;48.062;9.930;2023-05-03T13:20:07;15.93;;;7.85;;
72388;SDS011;60566;48.062;9.930;2023-05-03T13:22:33;13.10;;;8.23;;
72388;SDS011;60566;48.062;9.930;2023-05-03T13:24:58;13.43;;;7.32;;
72388;SDS011;60566;48.062;9.930;2023-05-03T13:27:24;14.88;;;7.60;;
72388;SDS011;60566;48.062;9.930;2023-05-03T13:29:50;11.45;;;7.65;;
72388;SDS011;60566;48.062;9.930;2023-05-03T13:32:16;13.70;;;8.52;;
72388;SDS011;60566;48.062;9.930;2023-05-03T13:34:41;13.43;;;8.25;;
72388;SDS011;60566;48.062;9.930;2023-05-03T13:37:06;11.38;;;7.07;;
72388;SDS011;60566;48.062;9.930;2023-05-03T13:39:32;11.02;;;6.30;;
72388;SDS011;60566;48.062;9.930;2023-05-03T13:41:58;13.00;;;7.20;;
72388;SDS011;60566;48.062;9.930;2023-05-03T13:44:23;12.52;;;7.20;;
72388;SDS011;60566;48.062;9.930;2023-05-03T13:46:50;13.25;;;6.80;;
72388;SDS011;60566;48.062;9.930;2023-05-03T13:49:16;10.55;;;6.45;;
72388;SDS011;60566;48.062;9.930;2023-05-03T13:51:41;11.38;;;7.38;;
72388;SDS011;60566;48.062;9.930;2023-05-03T13:54:07;11.20;;;7.47;;
72388;SDS011;60566;48.062;9.930;2023-05-03T13:56:32;11.63;;;6.63;;
72388;SDS011;60566;48.062;9.930;2023-05-03T13:58:58;9.30;;;5.85;;
72388;SDS011;60566;48.062;9.930;2023-05-03T14:01:24;8.60;;;5.30;;
72388;SDS011;60566;48.062;9.930;2023-05-03T14:03:51;6.85;;;4.65;;
72388;SDS011;60566;48.062;9.930;2023-05-03T14:06:18;10.05;;;5.90;;
72388;SDS011;60566;48.062;9.930;2023-05-03T14:08:44;10.95;;;6.97;;
72388;SDS011;60566;48.062;9.930;2023-05-03T14:11:13;11.75;;;6.07;;
72388;SDS011;60566;48.062;9.930;2023-05-03T14:13:39;11.05;;;6.60;;
72388;SDS011;60566;48.062;9.930;2023-05-03T14:16:04;11.10;;;5.65;;
72388;SDS011;60566;48.062;9.930;2023-05-03T14:18:30;8.63;;;4.75;;
72388;SDS011;60566;48.062;9.930;2023-05-03T14:20:57;13.35;;;5.80;;
72388;SDS011;60566;48.062;9.930;2023-05-03T14:23:22;9.48;;;5.35;;
72388;SDS011;60566;48.062;9.930;2023-05-03T14:25:47;9.27;;;5.57;;
72388;SDS011;60566;48.062;9.930;2023-05-03T14:28:13;8.68;;;5.45;;
72388;SDS011;60566;48.062;9.930;2023-05-03T14:30:38;10.68;;;5.97;;
72388;SDS011;60566;48.062;9.930;2023-05-03T14:33:04;9.73;;;4.97;;
72388;SDS011;60566;48.062;9.930;2023-05-03T14:35:31;7.22;;;4.85;;
72388;SDS011;60566;48.062;9.930;2023-05-03T14:37:58;14.55;;;5.07;;